Terminal Aerodrome Forecast
Issued by NWS

Home | Current Version | Previous Version | Text Only | Print | Product List | Glossary On
Versions: 1 2 3 4 5 6 7 8 9 10 11 12 13 14 15 16 17 18 19 20 21 22 23 24 25
000
FTUS43 KSGF 182322
TAFBBG
TAF
KBBG 182322Z 1900/1924 20004KT P6SM BKN150
     FM190600 22004KT P6SM BKN035
     FM191000 21004KT 2SM BR OVC010
      TEMPO 1910/1914 3/4SM BR OVC008
     FM191500 22005KT 3SM BR OVC009
     FM191600 20005KT 5SM BR OVC015
     FM191700 19006KT P6SM BKN015=

USA.gov is the U.S. government's official web portal to all federal, state and local government web resources and services.